createdAt,value
2017-09-28T00:00:26.475Z,0
2017-09-28T00:01:06.925Z,0
2017-09-28T00:01:47.380Z,0
2017-09-28T00:02:27.833Z,0
2017-09-28T00:03:08.285Z,0
2017-09-28T00:03:48.744Z,0
2017-09-28T00:04:29.192Z,0
2017-09-28T00:05:09.649Z,0
2017-09-28T00:05:50.114Z,0
2017-09-28T00:06:30.566Z,0
2017-09-28T00:07:11.024Z,0
2017-09-28T00:07:51.481Z,0
2017-09-28T00:08:31.933Z,0
2017-09-28T00:09:12.374Z,0
2017-09-28T00:09:52.832Z,0
2017-09-28T00:10:33.290Z,0
2017-09-28T00:11:13.781Z,0
2017-09-28T00:11:54.244Z,0
2017-09-28T00:12:34.696Z,0
2017-09-28T00:13:15.168Z,0
2017-09-28T00:13:55.620Z,0
2017-09-28T00:14:36.076Z,0
2017-09-28T00:15:16.526Z,0
2017-09-28T00:15:56.981Z,0
2017-09-28T00:16:37.435Z,0
2017-09-28T00:17:17.891Z,0
2017-09-28T00:17:58.333Z,0
2017-09-28T00:18:38.780Z,0
2017-09-28T00:19:19.239Z,0
2017-09-28T00:19:59.681Z,0
2017-09-28T00:20:40.131Z,0
2017-09-28T00:21:20.587Z,0
2017-09-28T00:22:01.042Z,0
2017-09-28T00:22:41.488Z,0
2017-09-28T00:23:21.941Z,0
2017-09-28T00:24:02.398Z,0
2017-09-28T00:24:42.858Z,0
2017-09-28T00:25:23.313Z,0
2017-09-28T00:26:03.773Z,0
2017-09-28T00:26:44.233Z,0
2017-09-28T00:27:24.688Z,0
2017-09-28T00:28:05.142Z,0
2017-09-28T00:28:45.593Z,0
2017-09-28T00:29:26.037Z,0
2017-09-28T00:30:06.482Z,0
2017-09-28T00:30:46.933Z,0
2017-09-28T00:31:27.391Z,0
2017-09-28T00:32:07.841Z,0
2017-09-28T00:32:48.298Z,0
2017-09-28T00:33:28.755Z,0
2017-09-28T00:34:09.209Z,0
2017-09-28T00:34:49.697Z,0
2017-09-28T00:35:30.126Z,0
2017-09-28T00:36:10.589Z,0
2017-09-28T00:36:51.042Z,0
2017-09-28T00:37:31.498Z,0
2017-09-28T00:38:11.953Z,0
2017-09-28T00:38:52.412Z,0
2017-09-28T00:39:32.859Z,0
2017-09-28T00:40:13.316Z,0
2017-09-28T00:40:53.779Z,0
2017-09-28T00:41:34.238Z,0
2017-09-28T00:42:14.668Z,0
2017-09-28T00:42:55.123Z,0
2017-09-28T00:43:35.570Z,0
2017-09-28T00:44:16.027Z,0
2017-09-28T00:44:56.476Z,0
2017-09-28T00:45:36.927Z,0
2017-09-28T00:46:17.378Z,0
2017-09-28T00:46:57.832Z,0
2017-09-28T00:47:38.287Z,0
2017-09-28T00:48:18.728Z,0
2017-09-28T00:48:59.190Z,0
2017-09-28T00:49:39.646Z,0
2017-09-28T00:50:20.104Z,0
2017-09-28T00:51:00.557Z,0
2017-09-28T00:51:41.013Z,0
2017-09-28T00:52:21.472Z,0
2017-09-28T00:53:01.924Z,0
2017-09-28T00:53:42.383Z,0
2017-09-28T00:54:22.835Z,0
2017-09-28T00:55:03.280Z,0
2017-09-28T00:55:43.733Z,0
2017-09-28T00:56:24.188Z,0
2017-09-28T00:57:04.643Z,0
2017-09-28T00:57:45.095Z,0
2017-09-28T00:58:25.544Z,0
2017-09-28T00:59:05.999Z,0
2017-09-28T00:59:46.448Z,0
2017-09-28T01:00:26.935Z,0
2017-09-28T01:01:07.348Z,0
2017-09-28T01:01:47.795Z,0
2017-09-28T01:02:28.253Z,0
2017-09-28T01:03:08.718Z,0
2017-09-28T01:03:49.181Z,0
2017-09-28T01:04:29.634Z,0
2017-09-28T01:05:10.078Z,0
2017-09-28T01:05:50.526Z,0
2017-09-28T01:06:30.980Z,0
2017-09-28T01:07:11.434Z,0
2017-09-28T01:07:51.884Z,0
2017-09-28T01:08:32.354Z,0
2017-09-28T01:09:12.801Z,0
2017-09-28T01:09:53.257Z,0
2017-09-28T01:10:33.717Z,0
2017-09-28T01:11:14.181Z,0
2017-09-28T01:11:54.623Z,0
2017-09-28T01:12:35.076Z,0
2017-09-28T01:13:15.533Z,0
2017-09-28T01:13:55.992Z,0
2017-09-28T01:14:36.465Z,0
2017-09-28T01:15:16.918Z,0
2017-09-28T01:15:57.371Z,0
2017-09-28T01:16:37.829Z,0
2017-09-28T01:17:18.281Z,0
2017-09-28T01:17:58.739Z,0
2017-09-28T01:18:39.191Z,0
2017-09-28T01:19:19.651Z,0
2017-09-28T01:20:00.108Z,0
2017-09-28T01:20:40.564Z,0
2017-09-28T01:21:21.024Z,0
2017-09-28T01:22:01.475Z,0
2017-09-28T01:22:41.926Z,0
2017-09-28T01:23:22.379Z,0
2017-09-28T01:24:02.824Z,0
2017-09-28T01:24:43.284Z,0
2017-09-28T01:25:23.728Z,0
2017-09-28T01:26:04.185Z,0
2017-09-28T01:26:44.629Z,0
2017-09-28T01:27:25.085Z,0
2017-09-28T01:28:05.542Z,0
2017-09-28T01:28:46.009Z,0
2017-09-28T01:29:26.467Z,0
2017-09-28T01:30:06.927Z,0
2017-09-28T01:30:47.383Z,0
2017-09-28T01:31:27.831Z,0
2017-09-28T01:32:08.289Z,0
2017-09-28T01:32:48.741Z,0
2017-09-28T01:33:29.201Z,0
2017-09-28T01:34:09.661Z,0
2017-09-28T01:34:50.124Z,0
2017-09-28T01:35:30.577Z,0
2017-09-28T01:36:11.047Z,0
2017-09-28T01:36:51.500Z,0
2017-09-28T01:37:31.964Z,0
2017-09-28T01:38:12.396Z,0
2017-09-28T01:38:52.864Z,0
2017-09-28T01:39:33.323Z,0
2017-09-28T01:40:13.778Z,0
2017-09-28T01:40:54.236Z,0
2017-09-28T01:41:34.680Z,0
2017-09-28T01:42:15.136Z,0
2017-09-28T01:42:55.582Z,0
2017-09-28T01:43:36.028Z,0
2017-09-28T01:44:16.482Z,0
2017-09-28T01:44:56.939Z,0
2017-09-28T01:45:37.392Z,0
2017-09-28T01:46:17.850Z,0
2017-09-28T01:46:58.306Z,0
2017-09-28T01:47:38.754Z,0
2017-09-28T01:48:19.211Z,0
2017-09-28T01:48:59.667Z,0
2017-09-28T01:49:40.128Z,0
2017-09-28T01:50:20.581Z,0
2017-09-28T01:51:01.034Z,0
2017-09-28T01:51:41.487Z,0
2017-09-28T01:52:21.942Z,0
2017-09-28T01:53:02.401Z,0
2017-09-28T01:53:42.850Z,0
2017-09-28T01:54:23.308Z,0
2017-09-28T01:55:03.767Z,0
2017-09-28T01:55:44.224Z,0
2017-09-28T01:56:24.701Z,0
2017-09-28T01:57:05.143Z,0
2017-09-28T01:57:45.603Z,0
2017-09-28T01:58:26.060Z,0
2017-09-28T01:59:06.520Z,0
2017-09-28T01:59:46.981Z,0
2017-09-28T02:00:27.439Z,0
2017-09-28T02:01:07.899Z,0
2017-09-28T02:01:48.355Z,0
2017-09-28T02:02:28.808Z,0
2017-09-28T02:03:09.289Z,0
2017-09-28T02:03:49.740Z,0
2017-09-28T02:04:30.194Z,0
2017-09-28T02:05:10.648Z,0
2017-09-28T02:05:51.103Z,0
2017-09-28T02:06:31.558Z,0
2017-09-28T02:07:12.016Z,0
2017-09-28T02:07:52.467Z,0
2017-09-28T02:08:32.919Z,0
2017-09-28T02:09:13.375Z,0
2017-09-28T02:09:53.821Z,0
2017-09-28T02:10:34.282Z,0
2017-09-28T02:11:14.745Z,0
2017-09-28T02:11:55.191Z,0
2017-09-28T02:12:35.651Z,0
2017-09-28T02:13:16.100Z,0
2017-09-28T02:13:56.559Z,0
2017-09-28T02:14:37.006Z,0
2017-09-28T02:15:17.457Z,0
2017-09-28T02:15:57.912Z,0
2017-09-28T02:16:38.372Z,0
2017-09-28T02:17:18.833Z,0
2017-09-28T02:17:59.283Z,0
2017-09-28T02:18:39.737Z,0
2017-09-28T02:19:20.191Z,0
2017-09-28T02:20:00.643Z,0
2017-09-28T02:20:41.105Z,0
2017-09-28T02:21:21.555Z,0
2017-09-28T02:22:02.014Z,0
2017-09-28T02:22:42.469Z,0
2017-09-28T02:23:23.441Z,0
2017-09-28T02:24:03.900Z,0
2017-09-28T02:24:44.357Z,0
2017-09-28T02:25:24.809Z,0
2017-09-28T02:26:05.265Z,0
2017-09-28T02:26:45.723Z,0
2017-09-28T02:27:26.174Z,0
2017-09-28T02:28:06.633Z,0
2017-09-28T02:28:47.088Z,0
2017-09-28T02:29:27.541Z,0
2017-09-28T02:30:08.005Z,0
2017-09-28T02:30:48.453Z,0
2017-09-28T02:31:28.908Z,0
2017-09-28T02:32:09.374Z,0
2017-09-28T02:32:49.822Z,0
2017-09-28T02:33:30.279Z,0
2017-09-28T02:35:43.068Z,0
2017-09-28T02:36:23.524Z,0
2017-09-28T02:37:03.993Z,0
2017-09-28T02:37:44.442Z,0
2017-09-28T02:38:24.898Z,0
2017-09-28T02:39:05.356Z,0
2017-09-28T02:39:45.795Z,0
2017-09-28T02:40:26.254Z,0
2017-09-28T02:41:06.704Z,0
2017-09-28T02:41:47.161Z,0
2017-09-28T02:42:27.611Z,0
2017-09-28T02:43:08.048Z,0
2017-09-28T02:43:48.486Z,0
2017-09-28T02:44:28.945Z,0
2017-09-28T02:45:09.401Z,0
2017-09-28T02:45:49.855Z,0
2017-09-28T02:46:30.320Z,0
2017-09-28T02:47:10.748Z,0
2017-09-28T02:47:51.206Z,0
2017-09-28T02:48:31.650Z,0
2017-09-28T02:49:12.097Z,0
2017-09-28T02:49:52.546Z,0
2017-09-28T02:50:33.024Z,0
2017-09-28T02:51:13.472Z,0
2017-09-28T02:51:53.932Z,0
2017-09-28T02:52:34.385Z,0
2017-09-28T02:53:14.854Z,0
2017-09-28T02:53:55.319Z,0
2017-09-28T02:54:35.748Z,0
2017-09-28T02:55:16.203Z,0
2017-09-28T02:55:56.672Z,0
2017-09-28T02:56:37.117Z,0
2017-09-28T02:57:17.571Z,0
2017-09-28T02:57:58.034Z,0
2017-09-28T02:58:38.478Z,0
2017-09-28T02:59:18.932Z,0
2017-09-28T02:59:59.372Z,0
2017-09-28T03:00:39.821Z,0
2017-09-28T03:01:20.274Z,0
2017-09-28T03:02:00.743Z,0
2017-09-28T03:02:41.175Z,0
2017-09-28T03:03:21.632Z,0
2017-09-28T03:04:02.088Z,0
2017-09-28T03:04:42.546Z,0
2017-09-28T03:05:23.008Z,0
2017-09-28T03:06:03.451Z,0
2017-09-28T03:06:43.908Z,0
2017-09-28T03:07:24.361Z,0
2017-09-28T03:08:04.812Z,0
2017-09-28T03:08:45.269Z,0
2017-09-28T03:09:25.722Z,0
2017-09-28T03:10:06.179Z,0
2017-09-28T03:10:46.639Z,0
2017-09-28T03:11:27.093Z,0
2017-09-28T03:12:07.549Z,0
2017-09-28T03:12:48.011Z,0
2017-09-28T03:13:28.460Z,0
2017-09-28T03:14:08.908Z,0
2017-09-28T03:14:49.358Z,0
2017-09-28T03:15:29.807Z,0
2017-09-28T03:16:10.262Z,0
2017-09-28T03:16:50.718Z,0
2017-09-28T03:17:31.177Z,0
2017-09-28T03:18:11.661Z,0
2017-09-28T03:18:52.087Z,0
2017-09-28T03:19:32.547Z,0
2017-09-28T03:20:13.008Z,0
2017-09-28T03:20:53.446Z,0
2017-09-28T03:21:33.902Z,0
2017-09-28T03:22:14.354Z,0
2017-09-28T03:22:54.806Z,0
2017-09-28T03:23:35.262Z,0
2017-09-28T03:24:15.715Z,0
2017-09-28T03:24:56.155Z,0
2017-09-28T03:25:36.613Z,0
2017-09-28T03:26:17.065Z,0
2017-09-28T03:26:57.520Z,0
2017-09-28T03:27:37.972Z,0
2017-09-28T03:28:18.427Z,0
2017-09-28T03:28:58.873Z,0
2017-09-28T03:29:39.329Z,0
2017-09-28T03:30:19.788Z,0
2017-09-28T03:31:00.232Z,0
2017-09-28T03:31:40.685Z,0
2017-09-28T03:32:21.147Z,0
2017-09-28T03:33:01.598Z,0
2017-09-28T03:33:42.047Z,0
2017-09-28T03:34:22.512Z,0
2017-09-28T03:35:02.960Z,0
2017-09-28T03:35:43.413Z,0
2017-09-28T03:36:23.872Z,0
2017-09-28T03:37:04.323Z,0
2017-09-28T03:37:44.777Z,0
2017-09-28T03:38:25.237Z,0
2017-09-28T03:39:05.694Z,0
2017-09-28T03:39:46.142Z,0
2017-09-28T03:40:26.593Z,0
2017-09-28T03:41:07.036Z,0
2017-09-28T03:41:47.480Z,0
2017-09-28T03:42:27.941Z,0
2017-09-28T03:43:08.399Z,0
2017-09-28T03:43:48.855Z,0
2017-09-28T03:44:29.312Z,0
2017-09-28T03:45:09.778Z,0
2017-09-28T03:45:50.230Z,0
2017-09-28T03:46:30.687Z,0
2017-09-28T03:47:11.143Z,0
2017-09-28T03:47:51.592Z,0
2017-09-28T03:48:32.045Z,0
2017-09-28T03:49:12.498Z,0
2017-09-28T03:49:52.956Z,0
2017-09-28T03:50:33.395Z,0
2017-09-28T03:51:13.842Z,0
2017-09-28T03:53:41.693Z,0
2017-09-28T03:54:22.151Z,0
2017-09-28T03:55:02.596Z,0
2017-09-28T03:55:43.041Z,0
2017-09-28T03:56:23.502Z,0
2017-09-28T03:57:03.957Z,0
2017-09-28T03:57:44.405Z,0
2017-09-28T03:58:24.863Z,0
2017-09-28T03:59:05.313Z,0
2017-09-28T03:59:45.775Z,0
2017-09-28T04:00:26.227Z,0
2017-09-28T04:01:06.678Z,0
2017-09-28T04:01:47.135Z,0
2017-09-28T04:02:27.582Z,0
2017-09-28T04:03:08.063Z,0
2017-09-28T04:03:48.482Z,0
2017-09-28T04:04:28.930Z,0
2017-09-28T04:05:09.381Z,0
2017-09-28T04:05:49.836Z,0
2017-09-28T04:06:30.295Z,0
2017-09-28T04:07:10.765Z,0
2017-09-28T04:07:51.222Z,0
2017-09-28T04:08:31.679Z,0
2017-09-28T04:09:12.128Z,0
2017-09-28T04:09:52.583Z,0
2017-09-28T04:10:33.045Z,0
2017-09-28T04:11:13.489Z,0
2017-09-28T04:11:53.940Z,0
2017-09-28T04:12:34.407Z,0
2017-09-28T04:13:14.856Z,0
2017-09-28T04:13:55.296Z,0
2017-09-28T04:14:35.751Z,0
2017-09-28T04:15:16.211Z,0
2017-09-28T04:15:56.654Z,0
2017-09-28T04:16:37.109Z,0
2017-09-28T04:17:17.599Z,0
2017-09-28T04:17:58.053Z,0
2017-09-28T04:18:38.504Z,0
2017-09-28T04:19:18.953Z,0
2017-09-28T04:19:59.385Z,0
2017-09-28T04:20:39.845Z,0
2017-09-28T04:21:20.301Z,0
2017-09-28T04:22:00.728Z,0
2017-09-28T04:22:41.148Z,0
2017-09-28T04:23:21.603Z,0
2017-09-28T04:24:02.048Z,0
2017-09-28T04:24:42.502Z,0
2017-09-28T04:26:55.172Z,0
2017-09-28T04:27:35.639Z,0
2017-09-28T04:28:16.093Z,0
2017-09-28T04:28:56.545Z,0
2017-09-28T04:29:36.995Z,0
2017-09-28T04:30:17.450Z,0
2017-09-28T04:30:57.905Z,0
2017-09-28T04:31:38.364Z,0
2017-09-28T04:32:18.819Z,0
2017-09-28T04:32:59.261Z,0
2017-09-28T04:33:39.714Z,0
2017-09-28T04:34:20.164Z,0
2017-09-28T04:35:00.620Z,0
2017-09-28T04:35:41.072Z,0
2017-09-28T04:36:21.500Z,0
2017-09-28T04:37:01.950Z,0
2017-09-28T04:37:42.420Z,0
2017-09-28T04:38:22.869Z,0
2017-09-28T04:39:03.327Z,0
2017-09-28T04:39:43.783Z,0
2017-09-28T04:40:24.237Z,0
2017-09-28T04:41:04.691Z,0
2017-09-28T04:41:45.141Z,0
2017-09-28T04:42:25.590Z,0
2017-09-28T04:43:06.048Z,0
2017-09-28T04:43:46.504Z,0
2017-09-28T04:44:26.955Z,0
2017-09-28T04:45:07.398Z,0
2017-09-28T04:45:47.851Z,0
2017-09-28T04:46:28.305Z,0
2017-09-28T04:47:08.741Z,0
2017-09-28T04:47:49.218Z,0
2017-09-28T04:48:29.670Z,0
2017-09-28T04:49:10.126Z,0
2017-09-28T04:49:50.578Z,0
2017-09-28T04:50:31.035Z,0
2017-09-28T04:51:11.501Z,0
2017-09-28T04:51:52.144Z,0
2017-09-28T04:52:32.593Z,0
2017-09-28T04:53:13.052Z,0
2017-09-28T04:53:53.518Z,0
2017-09-28T04:54:33.949Z,0
2017-09-28T04:55:14.406Z,0
2017-09-28T04:55:54.861Z,0
2017-09-28T04:56:35.321Z,0
2017-09-28T04:57:15.788Z,0
2017-09-28T04:57:56.241Z,0
2017-09-28T04:58:36.690Z,0
2017-09-28T04:59:17.146Z,0
2017-09-28T04:59:57.586Z,0
2017-09-28T05:00:38.032Z,0
2017-09-28T05:01:18.473Z,0
2017-09-28T05:01:58.938Z,0
2017-09-28T05:02:39.388Z,0
2017-09-28T05:03:19.848Z,0
2017-09-28T05:04:00.301Z,0
2017-09-28T05:04:40.751Z,0
2017-09-28T05:05:21.210Z,0
2017-09-28T05:06:01.663Z,0
2017-09-28T05:06:42.107Z,0
2017-09-28T05:07:22.562Z,0
2017-09-28T05:08:03.015Z,0
2017-09-28T05:08:43.470Z,0
2017-09-28T05:09:23.919Z,0
2017-09-28T05:10:04.379Z,0
2017-09-28T05:10:44.845Z,0
2017-09-28T05:11:25.299Z,0
2017-09-28T05:12:05.743Z,0
2017-09-28T05:12:46.198Z,0
2017-09-28T05:13:26.680Z,0
2017-09-28T05:14:07.332Z,0
2017-09-28T05:14:47.796Z,0
2017-09-28T05:15:28.261Z,0
2017-09-28T05:17:41.041Z,0
2017-09-28T05:18:21.490Z,0
2017-09-28T05:19:01.932Z,0
2017-09-28T05:19:42.383Z,0
2017-09-28T05:20:22.826Z,0
2017-09-28T05:21:03.271Z,0
2017-09-28T05:21:43.725Z,0
2017-09-28T05:22:24.169Z,0
2017-09-28T05:23:04.629Z,0
2017-09-28T05:23:45.072Z,0
2017-09-28T05:24:25.521Z,0
2017-09-28T05:25:05.977Z,0
2017-09-28T05:25:46.441Z,0
2017-09-28T05:26:26.890Z,0
2017-09-28T05:27:07.339Z,0
2017-09-28T05:27:47.791Z,0
2017-09-28T05:28:28.244Z,0
2017-09-28T05:29:08.696Z,0
2017-09-28T05:29:49.140Z,0
2017-09-28T05:30:29.596Z,0
2017-09-28T05:31:10.049Z,0
2017-09-28T05:31:50.503Z,0
2017-09-28T05:32:30.954Z,0
2017-09-28T05:33:11.404Z,0
2017-09-28T05:33:51.870Z,0
2017-09-28T05:34:32.316Z,0
2017-09-28T05:35:12.773Z,0
2017-09-28T05:35:53.231Z,0
2017-09-28T05:36:33.677Z,0
2017-09-28T05:37:14.129Z,0
2017-09-28T05:37:54.587Z,0
2017-09-28T05:38:35.044Z,0
2017-09-28T05:39:15.722Z,0
2017-09-28T05:39:56.193Z,0
2017-09-28T05:40:36.647Z,0
2017-09-28T05:41:17.099Z,0
2017-09-28T05:41:57.555Z,0
2017-09-28T05:42:38.005Z,0
2017-09-28T05:43:18.477Z,0
2017-09-28T05:43:58.905Z,0
2017-09-28T05:44:39.360Z,0
2017-09-28T05:45:19.813Z,0
2017-09-28T05:46:00.268Z,0
2017-09-28T05:46:40.724Z,0
2017-09-28T05:49:08.771Z,0
2017-09-28T05:51:21.418Z,0
2017-09-28T05:52:01.879Z,0
2017-09-28T05:52:42.334Z,0
2017-09-28T05:53:22.783Z,0
2017-09-28T05:54:03.241Z,0
2017-09-28T05:54:43.698Z,0
2017-09-28T05:55:24.156Z,0
2017-09-28T05:56:04.607Z,0
2017-09-28T05:58:33.012Z,0
2017-09-28T05:59:13.466Z,0
2017-09-28T05:59:53.910Z,0
2017-09-28T06:00:34.373Z,0
2017-09-28T06:01:14.824Z,0
2017-09-28T06:01:55.277Z,0
2017-09-28T06:02:35.730Z,0
2017-09-28T06:03:16.187Z,0
2017-09-28T06:03:56.641Z,0
2017-09-28T06:04:37.098Z,0
2017-09-28T06:05:17.550Z,0
2017-09-28T06:05:58.000Z,0
2017-09-28T06:06:38.451Z,0
2017-09-28T06:07:18.910Z,0
2017-09-28T06:07:59.360Z,0
2017-09-28T06:08:39.818Z,0
2017-09-28T06:09:20.278Z,0
2017-09-28T06:10:00.729Z,0
2017-09-28T06:10:41.332Z,5
2017-09-28T06:11:21.770Z,5
2017-09-28T06:12:02.221Z,5
2017-09-28T06:12:42.674Z,5
2017-09-28T06:13:23.168Z,5
2017-09-28T06:14:03.625Z,5
2017-09-28T06:16:31.440Z,5
2017-09-28T06:17:11.922Z,5
2017-09-28T06:17:52.379Z,5
2017-09-28T06:18:32.828Z,5
2017-09-28T06:19:13.282Z,5
2017-09-28T06:19:53.740Z,5
2017-09-28T06:20:34.192Z,5
2017-09-28T06:21:14.647Z,5
2017-09-28T06:21:55.103Z,5
2017-09-28T06:22:35.557Z,5
2017-09-28T06:23:16.005Z,5
2017-09-28T06:23:56.457Z,5
2017-09-28T06:24:36.913Z,5
2017-09-28T06:25:17.368Z,5
2017-09-28T06:25:57.823Z,5
2017-09-28T06:26:38.267Z,5
2017-09-28T06:27:18.727Z,5
2017-09-28T06:27:59.180Z,5
2017-09-28T06:28:39.626Z,5
2017-09-28T06:29:20.074Z,5
2017-09-28T06:30:00.515Z,5
2017-09-28T06:30:40.980Z,5
2017-09-28T06:31:21.399Z,5
2017-09-28T06:32:01.864Z,5
2017-09-28T06:32:42.310Z,5
2017-09-28T06:33:22.763Z,5
2017-09-28T06:34:03.236Z,5
2017-09-28T06:34:43.664Z,5
2017-09-28T06:35:24.133Z,5
2017-09-28T06:36:04.569Z,5
2017-09-28T06:36:45.024Z,5
2017-09-28T06:37:25.589Z,5
2017-09-28T06:38:06.055Z,5
2017-09-28T06:38:46.530Z,5
2017-09-28T06:39:26.989Z,5
2017-09-28T06:40:07.446Z,5
2017-09-28T06:40:47.892Z,5
2017-09-28T06:41:28.336Z,5
2017-09-28T06:42:08.787Z,5
2017-09-28T06:42:49.238Z,5
2017-09-28T06:43:29.692Z,5
2017-09-28T06:44:10.395Z,5
2017-09-28T06:44:50.794Z,5
2017-09-28T06:45:31.245Z,5
2017-09-28T06:46:11.686Z,5
2017-09-28T06:46:52.387Z,5
2017-09-28T06:47:33.329Z,5
2017-09-28T06:48:13.679Z,5
2017-09-28T06:48:54.136Z,5
2017-09-28T06:49:34.587Z,5
2017-09-28T06:50:15.027Z,5
2017-09-28T06:50:55.489Z,5
2017-09-28T06:51:35.936Z,5
2017-09-28T06:52:16.391Z,5
2017-09-28T06:52:56.847Z,5
2017-09-28T06:53:37.303Z,5
2017-09-28T06:54:17.751Z,10
2017-09-28T06:54:58.198Z,10
2017-09-28T06:55:38.656Z,10
2017-09-28T06:56:19.109Z,10
2017-09-28T06:56:59.570Z,10
2017-09-28T06:57:40.024Z,10
2017-09-28T06:58:20.478Z,10
2017-09-28T06:59:00.935Z,10
2017-09-28T06:59:41.433Z,10
2017-09-28T07:00:21.883Z,10
2017-09-28T07:01:02.332Z,10
2017-09-28T07:01:42.792Z,10
2017-09-28T07:02:23.245Z,10
2017-09-28T07:03:03.708Z,15
2017-09-28T07:03:44.158Z,15
2017-09-28T07:04:24.616Z,15
2017-09-28T07:05:05.075Z,15
2017-09-28T07:05:45.523Z,15
2017-09-28T07:06:25.991Z,15
2017-09-28T07:07:06.442Z,15
2017-09-28T07:07:46.895Z,15
2017-09-28T07:08:27.347Z,15
2017-09-28T07:09:07.826Z,15
2017-09-28T07:09:48.285Z,15
2017-09-28T07:10:28.729Z,15
2017-09-28T07:11:09.181Z,20
2017-09-28T07:13:21.976Z,20
2017-09-28T07:14:02.436Z,25
2017-09-28T07:14:42.906Z,25
2017-09-28T07:15:23.369Z,25
2017-09-28T07:16:03.810Z,25
2017-09-28T07:16:44.282Z,25
2017-09-28T07:17:24.731Z,25
2017-09-28T07:18:05.177Z,25
2017-09-28T07:18:45.640Z,25
2017-09-28T07:19:26.103Z,25
2017-09-28T07:20:06.548Z,25
2017-09-28T07:20:47.000Z,25
2017-09-28T07:21:27.458Z,25
2017-09-28T07:22:07.908Z,25
2017-09-28T07:22:48.364Z,25
2017-09-28T07:23:28.820Z,25
2017-09-28T07:24:09.271Z,20
2017-09-28T07:24:49.725Z,20
2017-09-28T07:25:30.181Z,20
2017-09-28T07:26:10.633Z,20
2017-09-28T07:26:51.087Z,20
2017-09-28T07:27:31.549Z,20
2017-09-28T07:28:12.000Z,25
2017-09-28T07:28:52.454Z,20
2017-09-28T07:29:32.905Z,20
2017-09-28T07:30:13.360Z,20
2017-09-28T07:30:53.819Z,20
2017-09-28T07:31:34.271Z,20
2017-09-28T07:32:14.727Z,20
2017-09-28T07:32:55.183Z,25
2017-09-28T07:33:35.632Z,25
2017-09-28T07:34:16.089Z,25
2017-09-28T07:34:56.593Z,25
2017-09-28T07:35:37.040Z,25
2017-09-28T07:36:17.496Z,25
2017-09-28T07:36:57.946Z,25
2017-09-28T07:37:38.401Z,25
2017-09-28T07:38:18.867Z,25
2017-09-28T07:38:59.315Z,25
2017-09-28T07:39:39.771Z,25
2017-09-28T07:40:20.223Z,25
2017-09-28T07:41:00.680Z,25
2017-09-28T07:41:41.140Z,25
2017-09-28T07:42:21.592Z,25
2017-09-28T07:43:02.042Z,25
2017-09-28T07:43:42.497Z,25
2017-09-28T07:44:22.952Z,25
2017-09-28T07:45:03.412Z,25
2017-09-28T07:45:43.846Z,25
2017-09-28T07:46:24.292Z,25
2017-09-28T07:47:04.743Z,25
2017-09-28T07:47:45.189Z,25
2017-09-28T07:48:25.636Z,25
2017-09-28T07:49:06.101Z,25
2017-09-28T07:49:46.546Z,25
2017-09-28T07:50:26.997Z,25
2017-09-28T07:51:07.456Z,25
2017-09-28T07:51:47.896Z,25
2017-09-28T07:52:28.354Z,25
2017-09-28T07:53:08.800Z,25
2017-09-28T07:53:49.288Z,25
2017-09-28T07:54:29.700Z,25
2017-09-28T07:55:10.156Z,20
2017-09-28T07:55:50.606Z,25
2017-09-28T07:56:31.064Z,20
2017-09-28T07:57:11.516Z,20
2017-09-28T07:57:51.979Z,20
2017-09-28T07:58:32.420Z,20
2017-09-28T07:59:12.879Z,20
2017-09-28T07:59:53.329Z,20
2017-09-28T08:00:33.771Z,20
2017-09-28T08:01:14.232Z,20
2017-09-28T08:01:54.685Z,20
2017-09-28T08:02:35.148Z,20
2017-09-28T08:03:15.605Z,20
2017-09-28T08:03:56.061Z,20
2017-09-28T08:04:36.517Z,20
2017-09-28T08:05:16.970Z,20
2017-09-28T08:05:57.426Z,20
2017-09-28T08:06:37.877Z,20
2017-09-28T08:07:18.330Z,20
2017-09-28T08:07:58.787Z,20
2017-09-28T08:08:39.220Z,20
2017-09-28T08:09:19.679Z,20
2017-09-28T08:10:00.130Z,20
2017-09-28T08:10:40.585Z,25
2017-09-28T08:11:21.038Z,25
2017-09-28T08:12:01.489Z,25
2017-09-28T08:12:41.946Z,30
2017-09-28T08:13:22.406Z,30
2017-09-28T08:14:02.861Z,30
2017-09-28T08:14:43.326Z,35
2017-09-28T08:15:23.780Z,40
2017-09-28T08:16:04.222Z,55
2017-09-28T08:16:44.674Z,55
2017-09-28T08:17:25.124Z,55
2017-09-28T08:18:05.570Z,70
2017-09-28T08:18:46.021Z,70
2017-09-28T08:19:26.474Z,75
2017-09-28T08:20:06.915Z,80
2017-09-28T08:20:47.353Z,85
2017-09-28T08:21:27.796Z,100
2017-09-28T08:22:08.250Z,115
2017-09-28T08:22:48.698Z,115
2017-09-28T08:23:29.151Z,115
2017-09-28T08:24:09.603Z,115
2017-09-28T08:24:50.059Z,125
2017-09-28T08:25:30.515Z,120
2017-09-28T08:26:10.968Z,120
2017-09-28T08:26:51.424Z,120
2017-09-28T08:27:31.881Z,110
2017-09-28T08:28:12.331Z,110
2017-09-28T08:28:52.781Z,105
2017-09-28T08:29:33.245Z,105
2017-09-28T08:30:13.706Z,105
2017-09-28T08:30:54.153Z,100
2017-09-28T08:31:34.609Z,105
2017-09-28T08:32:15.059Z,115
2017-09-28T08:32:55.515Z,125
2017-09-28T08:33:35.975Z,130
2017-09-28T08:34:16.431Z,120
2017-09-28T08:34:56.883Z,115
2017-09-28T08:35:37.339Z,100
2017-09-28T08:36:17.794Z,75
2017-09-28T08:36:58.256Z,90
2017-09-28T08:37:38.706Z,120
2017-09-28T08:38:19.163Z,120
2017-09-28T08:38:59.620Z,135
2017-09-28T08:39:40.071Z,135
2017-09-28T08:40:20.519Z,130
2017-09-28T08:41:00.979Z,120
2017-09-28T08:41:41.425Z,115
2017-09-28T08:42:21.883Z,125
2017-09-28T08:43:02.340Z,135
2017-09-28T08:43:42.796Z,135
2017-09-28T08:44:23.249Z,130
2017-09-28T08:45:03.706Z,135
2017-09-28T08:45:44.157Z,115
2017-09-28T08:46:24.604Z,90
2017-09-28T08:47:05.059Z,80
2017-09-28T08:47:45.519Z,80
2017-09-28T08:48:25.971Z,80
2017-09-28T08:49:06.423Z,85
2017-09-28T08:49:46.879Z,90
2017-09-28T08:50:27.320Z,90
2017-09-28T08:51:07.780Z,90
2017-09-28T08:51:48.238Z,85
2017-09-28T08:52:28.701Z,80
2017-09-28T08:53:09.159Z,70
2017-09-28T08:53:49.609Z,70
2017-09-28T08:54:30.062Z,65
2017-09-28T08:55:10.512Z,60
2017-09-28T08:55:50.963Z,60
2017-09-28T08:56:31.424Z,50
2017-09-28T08:57:11.883Z,50
2017-09-28T08:57:52.329Z,50
2017-09-28T08:58:32.776Z,45
2017-09-28T08:59:13.232Z,40
2017-09-28T08:59:53.676Z,40
2017-09-28T09:00:34.124Z,35
2017-09-28T09:01:14.572Z,35
2017-09-28T09:01:55.028Z,35
2017-09-28T09:02:35.481Z,30
2017-09-28T09:03:15.941Z,30
2017-09-28T09:03:56.396Z,30
2017-09-28T09:04:36.842Z,30
2017-09-28T09:05:17.296Z,35
2017-09-28T09:05:57.736Z,35
2017-09-28T09:06:38.190Z,35
2017-09-28T09:07:18.651Z,40
2017-09-28T09:07:59.104Z,40
2017-09-28T09:08:39.563Z,40
2017-09-28T09:09:20.019Z,40
2017-09-28T09:10:00.471Z,55
2017-09-28T09:10:40.922Z,50
2017-09-28T09:11:21.379Z,50
2017-09-28T09:12:01.839Z,65
2017-09-28T09:12:42.299Z,70
2017-09-28T09:13:22.745Z,70
2017-09-28T09:14:03.201Z,70
2017-09-28T09:14:43.655Z,55
2017-09-28T09:15:24.110Z,50
2017-09-28T09:16:04.561Z,50
2017-09-28T09:16:45.020Z,50
2017-09-28T09:17:25.464Z,50
2017-09-28T09:18:05.921Z,50
2017-09-28T09:18:46.361Z,50
2017-09-28T09:19:26.802Z,50
2017-09-28T09:20:07.262Z,50
2017-09-28T09:20:47.718Z,50
2017-09-28T09:21:28.169Z,45
2017-09-28T09:22:08.621Z,40
2017-09-28T09:22:49.433Z,40
2017-09-28T09:23:29.900Z,35
2017-09-28T09:24:10.349Z,35
2017-09-28T09:24:50.872Z,35
2017-09-28T09:25:31.325Z,30
2017-09-28T09:26:11.792Z,30
2017-09-28T09:26:52.229Z,35
2017-09-28T09:27:32.685Z,35
2017-09-28T09:28:13.132Z,30
2017-09-28T09:28:53.576Z,30
2017-09-28T09:29:34.026Z,30
2017-09-28T09:30:14.486Z,35
2017-09-28T09:30:54.921Z,40
2017-09-28T09:31:35.381Z,45
2017-09-28T09:32:15.831Z,50
2017-09-28T09:32:56.267Z,60
2017-09-28T09:33:36.726Z,55
2017-09-28T09:34:17.192Z,90
2017-09-28T09:34:57.634Z,90
2017-09-28T09:35:38.093Z,80
2017-09-28T09:36:18.538Z,70
2017-09-28T09:36:58.997Z,135
2017-09-28T09:37:39.440Z,90
2017-09-28T09:38:19.911Z,70
2017-09-28T09:39:00.366Z,55
2017-09-28T09:39:40.840Z,50
2017-09-28T09:40:21.290Z,60
2017-09-28T09:41:01.739Z,60
2017-09-28T09:41:42.185Z,50
2017-09-28T09:42:22.636Z,50
2017-09-28T09:43:03.086Z,50
2017-09-28T09:43:43.541Z,60
2017-09-28T09:44:24.013Z,90
2017-09-28T09:45:04.452Z,70
2017-09-28T09:45:44.901Z,105
2017-09-28T09:46:25.325Z,80
2017-09-28T09:47:05.773Z,80
2017-09-28T09:47:46.220Z,95
2017-09-28T09:48:26.665Z,115
2017-09-28T09:49:07.116Z,115
2017-09-28T09:49:47.568Z,105
2017-09-28T09:50:28.030Z,105
2017-09-28T09:51:08.485Z,100
2017-09-28T09:51:48.925Z,85
2017-09-28T09:52:29.403Z,75
2017-09-28T09:53:09.862Z,70
2017-09-28T09:53:50.318Z,80
2017-09-28T09:54:30.784Z,85
2017-09-28T09:55:11.254Z,70
2017-09-28T09:57:24.053Z,55
2017-09-28T09:58:04.634Z,55
2017-09-28T09:58:45.064Z,60
2017-09-28T09:59:25.515Z,60
2017-09-28T10:00:05.962Z,60
2017-09-28T10:00:46.403Z,65
2017-09-28T10:01:26.849Z,50
2017-09-28T10:02:07.406Z,50
2017-09-28T10:02:47.937Z,45
2017-09-28T10:03:28.431Z,45
2017-09-28T10:04:08.866Z,45
2017-09-28T10:04:49.319Z,45
2017-09-28T10:05:29.770Z,65
2017-09-28T10:06:10.224Z,45
2017-09-28T10:06:50.681Z,45